Aérodrome :
LOGIN :

S'inscrire | Disclaimer

   EN    FR    IT 

 










Légende :    VFR   VFR Marginal   IFR   IFR Intensif   IFR Très Intensif
Visi : 
Plafond : 
>= 8 km
>= 3000ft
5 à 8 km
1000 à 3000 ft
1500m à 5 km
500 à 1000 ft
800 à 1500m
200 à 500 ft
< 800m
< 200 ft
Symboles :   Orages  Brouillard  Fortes neiges  Fortes précipitations  Vent > 20 kt
SIGMETs :   Divers  Orages  Givrage  Turbulence  Onde Orograph.  Cendres Volcan.






- Altitude de l'aérodrome : 20 ft
- Code IATA : LSI


EGPB - Sumburgh

DERNIER METAR :
  • 250550Z 36005KT 9999 FEW028 05/02 Q1007

METARs EXPIRÉS :
  • 250520Z 01005KT 9999 FEW018 05/02 Q1006
  • 250450Z AUTO 35005KT 9999 NCD 06/02 Q1006
  • 250420Z AUTO 01006KT 9999 NCD 05/02 Q1005
  • 250350Z AUTO 35005KT 9999 FEW036/// 06/02 Q1005
  • 250320Z AUTO 34005KT 9999 BKN036/// 06/02 Q1005

TAF TAF EGPB
Valide du 25 à 06h jusqu'au 25 à 15h UTC


250502Z 2506/2515 35006KT 9999 FEW035
PROB30
TEMPO 2506/2515 7000 -SHRA BKN014



MET'MAP, la Météo Aéronautique d'un coup d'oeil ! - Copyright ORBIFLY Décembre 2007 - Disclaimer

ORBIFLY MET'MAP TEAM :

Programmation & Développement : Alexandra Zaïnal
Sur une idée originale de : Baudouin d'Aumeries
Assistance à la programmation : Marc-Olivier Méhu
Soutien technique & logistique : Manuel Goepfert

Contact : metmap@orbifly.com




SOURCES & CREDITS :

   NOAA